Chippewa County International Airport Sault Ste Marie US
ICAO: KCIU
IATA: CIU
Category: Medium
Scheduled Services: Yes

Elevation: 800 ft
TransAlt. 18000 ft.

Airport Communications:
AWOS 3:127.575
TORONTO CNTR:132.65
GREEN BAY RDO:123.65
CTAF/UNICOM:123

KCIU Zoom In..

If you have problems with the map follow the link
https://www.worldairports.se/pages/airport.php?
ICAO=KCIU

Runways:

(A) RW 09 length 5000 ft width 75 ft
---- / hdg 96

(B) RW 16 length 7201 ft width 200 ft
ILS 110.30 / hdg 156

(C) RW 27 length 5000 ft width 75 ft
---- / hdg 276

(D) RW 34 length 7201 ft width 200 ft
---- / hdg 336

Location; KCIU
Day. 13 / Time. 13.56 Zulu
* Altimeter: 29.94
* Temperature: -04° c. -24.8°f.
* Wind from: 050° Speed 05 kn.
Dewpoint: -04° c.
Visibility: 1 m.
Clouds: Overcast 300 ft.
Conditions: Mist.

KCIU 131356Z AUTO 05005KT 1 1/4SM BR OVC003 M04/M04 A2994 RMK AO2 UPB45E47SNB08E45 SLP151 P0000 T10391039 FZRANO


Wind From 050°
Speed 05 kn.

 
 
jpsmedia worldairports.se 2019   terms of use